Time;durP1;ratioP1;P1;durP2;ratioP2;P2;SDS_P1;SDS_P2;PMS_P1;PMS_P2;Temp;Humidity;BMP_temperature;BMP_pressure;BME280_temperature;BME280_humidity;BME280_pressure;Samples;Min_cycle;Max_cycle;Signal;HPM_P1;HPM_P2
2022/05/16 00:00:31;;;;;;;8.43;3.80;;;20.50;53.30;;;;;;5009941;28;20096;-87
2022/05/16 00:03:01;;;;;;;9.23;3.72;;;20.40;53.30;;;;;;5012816;28;20045;-88
2022/05/16 00:05:27;;;;;;;9.65;3.92;;;20.40;53.40;;;;;;5016695;28;20075;-88
2022/05/16 00:07:53;;;;;;;9.48;4.20;;;20.30;53.80;;;;;;5020439;28;20037;-87
2022/05/16 00:10:19;;;;;;;8.18;4.38;;;20.30;54.20;;;;;;5017457;28;20056;-87
2022/05/16 00:12:45;;;;;;;11.07;4.22;;;20.10;54.70;;;;;;5016594;28;20055;-88
2022/05/16 00:15:13;;;;;;;8.23;4.10;;;20.00;55.00;;;;;;5023527;28;20033;-87
2022/05/16 00:17:39;;;;;;;9.85;4.00;;;19.90;55.20;;;;;;5011848;28;20053;-88
2022/05/16 00:20:06;;;;;;;7.13;4.43;;;20.00;55.30;;;;;;5029625;28;20045;-87
2022/05/16 00:22:32;;;;;;;11.70;4.30;;;20.00;55.20;;;;;;5010149;28;20112;-87
2022/05/16 00:24:57;;;;;;;10.27;4.38;;;20.00;55.20;;;;;;5014971;28;20125;-87
2022/05/16 00:27:23;;;;;;;7.97;3.80;;;20.00;55.80;;;;;;5018852;28;20136;-88
2022/05/16 00:29:49;;;;;;;8.20;4.10;;;20.10;55.70;;;;;;5010505;28;20041;-87
2022/05/16 00:32:17;;;;;;;9.55;4.15;;;20.10;55.90;;;;;;5015954;28;20077;-87
2022/05/16 00:34:43;;;;;;;8.95;4.68;;;20.10;56.10;;;;;;5038686;28;20060;-86
2022/05/16 00:37:09;;;;;;;9.82;4.25;;;20.00;56.00;;;;;;5017712;28;20046;-86
2022/05/16 00:39:35;;;;;;;8.23;3.95;;;20.10;56.20;;;;;;5017344;28;20501;-86
2022/05/16 00:42:01;;;;;;;8.23;4.35;;;20.10;56.30;;;;;;5013369;28;20485;-87
2022/05/16 00:44:28;;;;;;;7.55;3.78;;;20.10;56.60;;;;;;5026326;28;20045;-86
2022/05/16 00:46:53;;;;;;;8.35;3.97;;;20.00;56.70;;;;;;5022114;28;20076;-85
2022/05/16 00:49:28;;;;;;;9.30;4.40;;;20.10;56.60;;;;;;5015561;28;20160;-88
2022/05/16 00:52:33;;;;;;;9.10;4.72;;;20.10;56.20;;;;;;5021270;28;20846;-87
2022/05/16 00:55:18;;;;;;;8.18;4.75;;;20.00;56.10;;;;;;5009230;28;20038;-87
2022/05/16 00:57:51;;;;;;;9.60;4.68;;;20.10;56.20;;;;;;5012517;28;20496;-86
2022/05/16 01:00:24;;;;;;;9.65;4.68;;;20.00;56.70;;;;;;5013691;28;20029;-86
2022/05/16 01:05:41;;;;;;;8.70;4.43;;;19.90;57.30;;;;;;5019848;28;20605;-86
2022/05/16 01:08:18;;;;;;;7.38;4.13;;;19.90;57.30;;;;;;5026490;28;20049;-86
2022/05/16 01:10:45;;;;;;;8.55;4.20;;;19.90;57.40;;;;;;5011271;28;20037;-86
2022/05/16 01:13:11;;;;;;;9.38;4.50;;;19.80;57.90;;;;;;5025352;28;20442;-86
2022/05/16 01:15:46;;;;;;;8.98;4.32;;;19.80;58.10;;;;;;5025255;28;20816;-86
2022/05/16 01:18:16;;;;;;;10.85;4.80;;;19.80;57.90;;;;;;5027894;28;20460;-86
2022/05/16 01:21:07;;;;;;;9.48;4.75;;;19.80;57.40;;;;;;5022719;28;20127;-84
2022/05/16 01:23:43;;;;;;;9.75;5.25;;;19.70;57.60;;;;;;5021659;28;20037;-85
2022/05/16 01:26:16;;;;;;;8.65;4.50;;;19.70;57.60;;;;;;5025523;28;20484;-86
2022/05/16 01:28:42;;;;;;;9.75;4.03;;;19.70;57.50;;;;;;5017402;28;20450;-86
2022/05/16 01:31:08;;;;;;;9.60;4.38;;;19.60;57.50;;;;;;5022193;28;20046;-87
2022/05/16 01:33:34;;;;;;;9.38;4.07;;;19.60;57.50;;;;;;5026361;28;20100;-86
2022/05/16 01:36:00;;;;;;;9.15;4.07;;;19.60;57.60;;;;;;5027946;28;20026;-86
2022/05/16 01:38:27;;;;;;;8.95;3.97;;;19.60;57.70;;;;;;5030209;28;20090;-86
2022/05/16 01:40:54;;;;;;;8.10;3.88;;;19.60;57.80;;;;;;5025744;28;20129;-87
2022/05/16 01:43:26;;;;;;;8.38;3.78;;;19.60;57.80;;;;;;5025141;28;20049;-87
2022/05/16 01:45:52;;;;;;;13.20;4.80;;;19.60;58.00;;;;;;5045310;28;20032;-88
2022/05/16 01:48:19;;;;;;;9.73;4.45;;;19.60;57.50;;;;;;5029633;28;20472;-87
2022/05/16 01:50:46;;;;;;;8.43;4.07;;;19.60;57.30;;;;;;5027468;28;20128;-86
2022/05/16 01:53:13;;;;;;;17.25;4.82;;;19.70;57.20;;;;;;5026210;28;20022;-89
2022/05/16 01:55:39;;;;;;;8.75;3.83;;;19.70;57.20;;;;;;5041972;28;20068;-88
2022/05/16 01:58:06;;;;;;;7.55;3.20;;;19.70;57.30;;;;;;5020603;28;20508;-87
2022/05/16 02:00:33;;;;;;;8.82;3.70;;;19.70;57.50;;;;;;5026908;28;20029;-87
2022/05/16 02:03:00;;;;;;;10.45;4.68;;;19.70;57.70;;;;;;5014329;28;20049;-87
2022/05/16 02:05:26;;;;;;;7.40;3.80;;;19.70;57.40;;;;;;5028944;28;20053;-86
2022/05/16 02:07:52;;;;;;;8.88;3.67;;;19.80;57.10;;;;;;5026755;28;20045;-86
2022/05/16 02:10:21;;;;;;;11.20;4.50;;;19.80;57.10;;;;;;5031498;28;20049;-88
2022/05/16 02:12:47;;;;;;;11.32;4.13;;;19.80;57.10;;;;;;5025044;28;20139;-87
2022/05/16 02:15:18;;;;;;;9.73;3.95;;;19.80;57.10;;;;;;5017396;28;20551;-86
2022/05/16 02:17:45;;;;;;;7.97;3.70;;;19.90;57.20;;;;;;5012358;28;20113;-87
2022/05/16 02:20:12;;;;;;;9.35;3.95;;;19.90;57.20;;;;;;5011112;28;20084;-88
2022/05/16 02:25:22;;;;;;;7.95;3.60;;;19.90;57.40;;;;;;5011579;28;20112;-88
2022/05/16 02:27:50;;;;;;;7.43;3.60;;;19.90;57.50;;;;;;5013814;28;20046;-86
2022/05/16 02:30:16;;;;;;;8.80;3.55;;;19.90;57.50;;;;;;5009128;28;20029;-87
2022/05/16 02:32:42;;;;;;;7.90;3.35;;;19.90;57.50;;;;;;5022618;28;20038;-87
2022/05/16 02:35:08;;;;;;;8.32;3.30;;;19.90;57.50;;;;;;5008862;28;20823;-87
2022/05/16 02:37:34;;;;;;;10.18;4.07;;;19.90;57.60;;;;;;5024092;28;20124;-88
2022/05/16 02:40:00;;;;;;;10.30;3.50;;;19.90;57.80;;;;;;5021132;28;20096;-88
2022/05/16 02:42:26;;;;;;;9.10;3.47;;;19.90;57.90;;;;;;5013181;28;20041;-88
2022/05/16 02:44:52;;;;;;;11.48;3.83;;;20.00;58.00;;;;;;5023849;28;20524;-87
2022/05/16 02:47:20;;;;;;;8.32;3.78;;;19.90;58.30;;;;;;5016721;28;20049;-87
2022/05/16 02:49:46;;;;;;;8.90;3.03;;;19.90;58.60;;;;;;5028835;28;20049;-87
2022/05/16 02:52:12;;;;;;;9.95;3.42;;;20.00;59.00;;;;;;5020110;28;20112;-88
2022/05/16 02:54:38;;;;;;;8.77;3.15;;;20.00;59.10;;;;;;5012584;28;20059;-86
2022/05/16 02:57:05;;;;;;;7.28;2.80;;;20.00;59.50;;;;;;5020510;28;20125;-87
2022/05/16 02:59:34;;;;;;;6.95;3.30;;;20.00;59.70;;;;;;5023493;28;20091;-87
2022/05/16 03:02:00;;;;;;;7.95;2.75;;;20.10;59.70;;;;;;5029893;28;20057;-88
2022/05/16 03:04:26;;;;;;;6.53;3.33;;;20.10;59.60;;;;;;5022715;28;20037;-87
2022/05/16 03:06:53;;;;;;;6.90;2.78;;;20.00;60.00;;;;;;5025729;28;20041;-88
2022/05/16 03:09:18;;;;;;;6.35;3.17;;;20.00;60.10;;;;;;5022705;28;20038;-88
2022/05/16 03:11:44;;;;;;;5.63;2.72;;;20.00;60.30;;;;;;5016602;28;20495;-88
2022/05/16 03:14:11;;;;;;;7.55;3.13;;;20.00;60.70;;;;;;5018635;28;20115;-88
2022/05/16 03:16:37;;;;;;;7.25;2.90;;;20.00;60.70;;;;;;5019128;28;20132;-88
2022/05/16 03:19:04;;;;;;;8.50;3.03;;;19.90;60.70;;;;;;5022206;28;20052;-89
2022/05/16 03:21:30;;;;;;;7.13;3.05;;;19.90;60.80;;;;;;5033872;28;20041;-87
2022/05/16 03:23:58;;;;;;;6.75;3.40;;;19.90;61.10;;;;;;5017535;28;20129;-87
2022/05/16 03:26:24;;;;;;;8.27;3.28;;;20.00;61.20;;;;;;5021599;28;20574;-87
2022/05/16 03:28:50;;;;;;;7.32;3.35;;;19.90;61.10;;;;;;5015805;28;20040;-86
2022/05/16 03:31:16;;;;;;;7.10;3.55;;;19.90;61.30;;;;;;5019846;28;20806;-86
2022/05/16 03:33:42;;;;;;;7.43;3.00;;;19.90;61.30;;;;;;5023411;28;20094;-85
2022/05/16 03:36:08;;;;;;;6.65;2.88;;;19.90;61.30;;;;;;5024152;28;20045;-87
2022/05/16 03:41:19;;;;;;;7.03;2.75;;;19.80;61.50;;;;;;5015309;28;20096;-86
2022/05/16 03:43:45;;;;;;;6.57;3.03;;;19.80;61.60;;;;;;5026868;28;20132;-87
2022/05/16 03:46:11;;;;;;;12.63;3.28;;;19.80;61.90;;;;;;5025736;28;20124;-85
2022/05/16 03:48:37;;;;;;;10.77;3.35;;;19.80;61.70;;;;;;5020012;28;20436;-87
2022/05/16 03:51:05;;;;;;;7.65;3.28;;;19.80;61.80;;;;;;5017351;28;20034;-88
2022/05/16 03:53:31;;;;;;;6.10;2.92;;;19.70;62.00;;;;;;5023167;28;20121;-88
2022/05/16 03:55:57;;;;;;;6.13;3.10;;;19.70;62.10;;;;;;5023172;28;20129;-86
2022/05/16 03:58:22;;;;;;;6.95;3.05;;;19.70;62.20;;;;;;5020004;28;20045;-86
2022/05/16 04:00:48;;;;;;;7.88;3.25;;;19.60;62.40;;;;;;5017440;28;20033;-88
2022/05/16 04:03:15;;;;;;;6.95;3.15;;;19.60;62.50;;;;;;5013332;28;20080;-87
2022/05/16 04:05:41;;;;;;;6.25;3.13;;;19.60;62.70;;;;;;5036020;28;20091;-88
2022/05/16 04:08:07;;;;;;;8.30;3.10;;;19.50;63.00;;;;;;5012053;28;20132;-86
2022/05/16 04:10:33;;;;;;;8.48;3.80;;;19.60;63.30;;;;;;5022608;28;20095;-86
2022/05/16 04:12:59;;;;;;;7.20;3.30;;;19.50;63.40;;;;;;5019976;28;20042;-87
2022/05/16 04:15:25;;;;;;;8.15;3.10;;;19.50;63.70;;;;;;5022900;28;20041;-87
2022/05/16 04:17:51;;;;;;;9.00;3.60;;;19.50;64.00;;;;;;5019754;28;20478;-89
2022/05/16 04:20:19;;;;;;;6.78;3.10;;;19.50;64.30;;;;;;5023362;28;20101;-87
2022/05/16 04:22:45;;;;;;;7.55;3.60;;;19.50;64.50;;;;;;5025209;28;20041;-89
2022/05/16 04:25:19;;;;;;;8.85;3.60;;;19.40;64.30;;;;;;5016730;28;20116;-89
2022/05/16 04:27:44;;;;;;;8.85;3.95;;;19.40;64.50;;;;;;5019354;28;20030;-88
2022/05/16 04:30:11;;;;;;;7.60;3.15;;;19.40;64.50;;;;;;5008133;28;20042;-87
2022/05/16 04:32:37;;;;;;;9.30;3.70;;;19.40;64.50;;;;;;5018627;28;20042;-88
2022/05/16 04:35:03;;;;;;;12.10;4.32;;;19.40;64.80;;;;;;5012353;28;20047;-87
2022/05/16 04:37:32;;;;;;;8.95;3.63;;;19.30;64.90;;;;;;5012801;28;20041;-88
2022/05/16 04:40:05;;;;;;;6.57;3.20;;;19.30;65.00;;;;;;5014834;28;20072;-90
2022/05/16 04:42:46;;;;;;;8.48;3.78;;;19.40;65.10;;;;;;5030823;28;20033;-88
2022/05/16 04:45:17;;;;;;;8.65;3.95;;;19.40;65.10;;;;;;5025402;28;20025;-90
2022/05/16 04:47:45;;;;;;;7.80;3.80;;;19.50;65.00;;;;;;5024059;28;21025;-87
2022/05/16 04:50:14;;;;;;;9.57;4.30;;;19.50;65.00;;;;;;5017337;28;20029;-87
2022/05/16 04:52:40;;;;;;;11.60;3.70;;;19.60;64.90;;;;;;5023580;28;20084;-86
2022/05/16 04:55:07;;;;;;;11.68;4.70;;;19.60;65.00;;;;;;5023200;28;20434;-88
2022/05/16 04:57:33;;;;;;;7.55;3.67;;;19.60;65.20;;;;;;5010521;28;20489;-89
2022/05/16 04:59:58;;;;;;;11.65;3.85;;;19.60;65.20;;;;;;5012504;28;20034;-88
2022/05/16 05:02:24;;;;;;;10.73;3.55;;;19.60;65.20;;;;;;5027358;28;21116;-87
2022/05/16 05:04:50;;;;;;;10.73;4.07;;;19.60;65.20;;;;;;5018679;28;20041;-87
2022/05/16 05:07:17;;;;;;;9.82;4.00;;;19.60;65.10;;;;;;5017735;28;20038;-90
2022/05/16 05:15:15;;;;;;;15.45;4.65;;;19.80;65.70;;;;;;5011694;28;20093;-89
2022/05/16 05:17:41;;;;;;;12.15;5.05;;;19.90;65.90;;;;;;5017798;28;20057;-88
2022/05/16 05:20:13;;;;;;;16.23;5.22;;;20.10;65.70;;;;;;5014766;28;20037;-88
2022/05/16 05:22:43;;;;;;;14.77;4.22;;;20.10;65.40;;;;;;5022457;28;20072;-88
2022/05/16 05:25:11;;;;;;;10.75;3.88;;;20.80;64.60;;;;;;5029260;28;20030;-88
2022/05/16 05:27:40;;;;;;;15.02;3.60;;;21.60;62.00;;;;;;5043924;28;20231;-89
2022/05/16 05:30:09;;;;;;;8.43;3.22;;;22.10;59.80;;;;;;5026517;28;20130;-89
2022/05/16 05:32:35;;;;;;;7.85;2.95;;;22.00;60.00;;;;;;5021989;28;20026;-88
2022/05/16 05:35:01;;;;;;;8.98;2.85;;;21.70;61.10;;;;;;5017379;28;20453;-88
2022/05/16 05:37:27;;;;;;;10.50;2.90;;;21.50;62.00;;;;;;5017267;28;20046;-87
2022/05/16 05:39:52;;;;;;;8.80;2.80;;;21.60;62.00;;;;;;5019743;28;20062;-90
2022/05/16 05:42:18;;;;;;;10.00;2.70;;;21.60;62.10;;;;;;5017558;28;20388;-87
2022/05/16 05:44:44;;;;;;;6.88;2.78;;;21.70;62.20;;;;;;5014275;28;20045;-88
2022/05/16 05:47:10;;;;;;;7.32;2.97;;;22.60;60.00;;;;;;5012216;28;20408;-89
2022/05/16 05:49:36;;;;;;;10.27;2.92;;;23.40;57.40;;;;;;5014013;28;20133;-89
2022/05/16 05:52:03;;;;;;;6.57;2.80;;;23.60;56.40;;;;;;5008660;28;20049;-88
2022/05/16 05:54:28;;;;;;;10.68;3.00;;;23.80;55.90;;;;;;5009580;28;20111;-89
2022/05/16 05:56:54;;;;;;;7.50;2.55;;;23.60;56.20;;;;;;5025621;28;20493;-92
2022/05/16 05:59:20;;;;;;;11.52;3.00;;;23.30;57.40;;;;;;5012450;28;20030;-89
2022/05/16 06:01:46;;;;;;;8.45;2.85;;;22.80;59.00;;;;;;5021887;28;20041;-89
2022/05/16 06:04:12;;;;;;;10.00;2.95;;;22.60;59.60;;;;;;5033813;28;20030;-88
2022/05/16 06:06:40;;;;;;;8.48;2.95;;;22.40;59.90;;;;;;5023337;28;20107;-88
2022/05/16 06:09:06;;;;;;;10.48;3.33;;;22.30;60.70;;;;;;5022873;28;20488;-88
2022/05/16 06:11:31;;;;;;;7.47;2.63;;;22.30;60.80;;;;;;5021874;28;20034;-86
2022/05/16 06:13:58;;;;;;;8.45;3.38;;;22.40;60.20;;;;;;5017696;28;20436;-86
2022/05/16 06:16:24;;;;;;;10.77;3.08;;;22.40;60.70;;;;;;5010425;28;20048;-86
2022/05/16 06:18:49;;;;;;;5.85;2.80;;;22.40;60.40;;;;;;5023088;28;20045;-89
2022/05/16 06:21:15;;;;;;;8.60;2.90;;;22.40;60.50;;;;;;5007319;28;20442;-88
2022/05/16 06:23:40;;;;;;;9.35;3.03;;;22.50;60.20;;;;;;5017822;28;20076;-86
2022/05/16 06:26:06;;;;;;;8.05;3.22;;;22.60;60.00;;;;;;5018977;28;20034;-89
2022/05/16 06:28:37;;;;;;;8.02;2.95;;;22.70;60.20;;;;;;5021053;28;20037;-86
2022/05/16 06:31:04;;;;;;;11.82;3.58;;;22.80;59.70;;;;;;5025363;28;20037;-87
2022/05/16 06:33:30;;;;;;;10.60;3.63;;;22.80;59.80;;;;;;5037406;28;20026;-89
2022/05/16 06:35:56;;;;;;;6.43;2.92;;;22.90;59.50;;;;;;5046548;28;20034;-89
2022/05/16 06:38:25;;;;;;;10.57;3.25;;;23.00;59.20;;;;;;5048011;28;20046;-88
2022/05/16 06:40:51;;;;;;;12.05;3.13;;;23.00;59.10;;;;;;5027324;28;20053;-90
2022/05/16 06:43:19;;;;;;;7.22;3.42;;;23.00;59.00;;;;;;5018248;28;20030;-87
2022/05/16 06:45:45;;;;;;;7.28;3.33;;;23.10;59.10;;;;;;5026543;28;20042;-88
2022/05/16 06:48:11;;;;;;;9.48;3.90;;;23.20;58.30;;;;;;5014631;28;20057;-88
2022/05/16 06:50:39;;;;;;;10.23;4.38;;;23.10;58.60;;;;;;5033460;28;20149;-88
2022/05/16 06:53:06;;;;;;;10.95;3.60;;;22.90;59.10;;;;;;5033704;28;20229;-89
2022/05/16 06:55:32;;;;;;;9.95;3.70;;;22.90;59.50;;;;;;5024461;28;20120;-86
2022/05/16 06:57:58;;;;;;;8.18;3.40;;;23.10;59.00;;;;;;5032270;28;20046;-87
2022/05/16 07:00:26;;;;;;;7.05;3.33;;;23.00;59.10;;;;;;5011320;28;20382;-86
2022/05/16 07:02:52;;;;;;;9.20;3.88;;;23.10;59.60;;;;;;5011437;28;20041;-87
2022/05/16 07:05:18;;;;;;;13.05;4.05;;;23.40;59.20;;;;;;5008494;28;20029;-87
2022/05/16 07:07:44;;;;;;;8.38;3.40;;;23.40;58.70;;;;;;5015943;28;20052;-85
2022/05/16 07:10:10;;;;;;;10.98;3.40;;;23.20;59.00;;;;;;5005234;28;20132;-84
2022/05/16 07:12:35;;;;;;;11.93;4.13;;;23.20;59.50;;;;;;5012742;28;20470;-84
2022/05/16 07:15:01;;;;;;;8.18;3.50;;;23.50;59.10;;;;;;5016632;28;20034;-84
2022/05/16 07:17:27;;;;;;;8.73;3.58;;;23.50;58.00;;;;;;5012031;28;20460;-82
2022/05/16 07:19:53;;;;;;;12.73;3.80;;;23.80;57.90;;;;;;5020051;28;20053;-86
2022/05/16 07:22:25;;;;;;;12.93;4.20;;;23.80;57.70;;;;;;5007367;28;20120;-86
2022/05/16 07:24:55;;;;;;;9.13;4.50;;;23.60;58.40;;;;;;5023040;28;20021;-85
2022/05/16 07:30:09;;;;;;;9.05;4.72;;;23.20;60.30;;;;;;5011550;28;20089;-84
2022/05/16 07:32:43;;;;;;;11.32;5.15;;;23.10;60.70;;;;;;5014475;28;20029;-86
2022/05/16 07:35:17;;;;;;;8.88;5.15;;;23.10;61.60;;;;;;5016507;28;20402;-85
2022/05/16 07:37:44;;;;;;;9.18;4.78;;;23.10;61.90;;;;;;5031267;28;21033;-86
2022/05/16 07:40:11;;;;;;;11.00;5.63;;;23.10;61.50;;;;;;5030865;28;20045;-87
2022/05/16 07:42:37;;;;;;;10.25;5.47;;;23.20;61.20;;;;;;5013087;28;20041;-87
2022/05/16 07:45:04;;;;;;;9.55;5.25;;;23.30;60.90;;;;;;5016239;28;20121;-85
2022/05/16 07:47:30;;;;;;;10.07;5.30;;;23.50;60.80;;;;;;5020084;28;20037;-86
2022/05/16 07:49:57;;;;;;;10.55;5.38;;;23.80;59.60;;;;;;5013247;28;20095;-87
2022/05/16 07:52:23;;;;;;;14.45;6.30;;;24.00;58.80;;;;;;5011849;28;20049;-84
2022/05/16 07:54:49;;;;;;;10.23;5.85;;;24.00;58.90;;;;;;5010576;28;20097;-89
2022/05/16 07:57:14;;;;;;;9.52;5.30;;;23.70;59.70;;;;;;5013265;28;20037;-86
2022/05/16 07:59:41;;;;;;;13.60;6.15;;;23.80;59.80;;;;;;5006836;28;20038;-85
2022/05/16 08:02:08;;;;;;;12.63;6.22;;;24.00;59.00;;;;;;5010358;28;20072;-87
2022/05/16 08:04:34;;;;;;;14.52;6.68;;;24.10;59.10;;;;;;5002955;28;20137;-86
2022/05/16 08:07:01;;;;;;;15.25;7.07;;;23.80;60.40;;;;;;5020102;28;20557;-85
2022/05/16 08:12:11;;;;;;;11.23;7.45;;;23.50;60.30;;;;;;5006502;28;20113;-85
2022/05/16 08:14:43;;;;;;;12.38;7.45;;;23.10;61.90;;;;;;5013628;28;20512;-84
2022/05/16 08:17:09;;;;;;;11.70;7.82;;;23.00;62.00;;;;;;5013607;28;20456;-86
2022/05/16 08:19:36;;;;;;;15.88;7.72;;;22.70;62.80;;;;;;5013120;28;20477;-85
2022/05/16 08:22:01;;;;;;;14.35;8.70;;;22.60;63.20;;;;;;5015671;28;20096;-83
2022/05/16 08:24:28;;;;;;;13.68;8.63;;;22.30;63.60;;;;;;5015392;28;20037;-84
2022/05/16 08:26:54;;;;;;;12.70;8.60;;;22.00;64.60;;;;;;5018019;28;20464;-85
2022/05/16 08:29:20;;;;;;;13.35;9.02;;;22.00;64.30;;;;;;5018622;28;20040;-83
2022/05/16 08:31:46;;;;;;;14.68;8.20;;;22.00;64.40;;;;;;5025503;28;20080;-85
2022/05/16 08:34:11;;;;;;;14.45;8.68;;;21.90;64.70;;;;;;5015742;28;20038;-84
2022/05/16 08:42:09;;;;;;;14.05;9.65;;;21.90;65.90;;;;;;5029618;28;20048;-84
2022/05/16 08:44:56;;;;;;;16.98;9.48;;;21.70;65.60;;;;;;5026994;28;20549;-86
2022/05/16 08:47:37;;;;;;;17.88;9.80;;;21.70;66.10;;;;;;5053838;28;20150;-81
2022/05/16 08:50:13;;;;;;;16.48;10.38;;;21.70;65.80;;;;;;5014464;28;20037;-86
2022/05/16 08:52:50;;;;;;;13.52;9.82;;;21.60;66.20;;;;;;5021053;28;20484;-84
2022/05/16 08:55:40;;;;;;;16.45;9.77;;;21.70;66.10;;;;;;5028153;28;20037;-82
2022/05/16 08:58:06;;;;;;;18.23;9.98;;;21.70;66.10;;;;;;5015172;28;20042;-86
2022/05/16 09:00:47;;;;;;;18.05;10.63;;;21.50;67.20;;;;;;5016052;28;20034;-84
2022/05/16 09:03:17;;;;;;;14.90;9.40;;;21.50;66.80;;;;;;5020646;28;20042;-82
2022/05/16 09:05:48;;;;;;;17.08;10.60;;;21.60;66.70;;;;;;5027479;28;20046;-83
2022/05/16 09:08:29;;;;;;;14.93;10.07;;;21.60;66.30;;;;;;5014995;28;20042;-83
2022/05/16 09:11:09;;;;;;;16.30;10.45;;;21.50;66.00;;;;;;5013569;28;20040;-84
2022/05/16 09:13:41;;;;;;;15.70;9.70;;;21.10;67.50;;;;;;5014127;28;20041;-85
2022/05/16 09:16:33;;;;;;;16.08;9.70;;;21.10;67.20;;;;;;5016298;28;20038;-84
2022/05/16 09:19:11;;;;;;;17.30;9.88;;;21.00;67.60;;;;;;5025741;28;20108;-83
2022/05/16 09:21:58;;;;;;;16.75;9.38;;;20.80;68.70;;;;;;5017495;28;20041;-83
2022/05/16 09:24:33;;;;;;;18.35;9.43;;;21.00;68.60;;;;;;5018662;28;20036;-83
2022/05/16 09:27:08;;;;;;;15.23;9.40;;;21.40;67.00;;;;;;5024258;28;20051;-83
2022/05/16 09:29:42;;;;;;;18.50;8.43;;;21.50;66.40;;;;;;5024828;28;20083;-84
2022/05/16 09:32:30;;;;;;;15.80;8.27;;;21.70;65.20;;;;;;5023378;28;20061;-85
2022/05/16 09:34:55;;;;;;;20.17;9.25;;;22.10;64.60;;;;;;5023811;28;20034;-84
2022/05/16 09:37:21;;;;;;;15.05;8.32;;;22.10;64.40;;;;;;5022360;28;20076;-83
2022/05/16 09:39:52;;;;;;;15.05;8.07;;;22.10;64.60;;;;;;5022459;28;20468;-84
2022/05/16 09:42:32;;;;;;;15.13;6.78;;;22.10;62.50;;;;;;5015759;28;20172;-83
2022/05/16 09:45:17;;;;;;;14.55;6.82;;;21.90;62.70;;;;;;5007353;28;20422;-85
2022/05/16 09:47:43;;;;;;;12.48;5.95;;;22.00;62.80;;;;;;5018922;28;20095;-85
2022/05/16 09:50:24;;;;;;;14.18;6.22;;;22.10;62.20;;;;;;5019100;28;20045;-83
2022/05/16 09:53:04;;;;;;;15.55;6.10;;;22.10;61.10;;;;;;5020924;28;20041;-83
2022/05/16 09:55:35;;;;;;;14.05;5.68;;;22.30;59.90;;;;;;5009788;28;21271;-83
2022/05/16 09:58:13;;;;;;;14.15;5.57;;;22.40;60.00;;;;;;5007364;28;20038;-81
2022/05/16 10:00:45;;;;;;;14.05;5.78;;;22.10;60.70;;;;;;5022762;28;20050;-82
2022/05/16 10:03:22;;;;;;;15.15;6.00;;;22.10;61.00;;;;;;5021870;28;20047;-82
2022/05/16 10:05:51;;;;;;;14.57;5.63;;;22.10;60.70;;;;;;5020010;28;20100;-84
2022/05/16 10:08:31;;;;;;;15.43;6.07;;;22.20;60.10;;;;;;5033635;28;20045;-80
2022/05/16 10:11:01;;;;;;;14.45;5.63;;;22.10;60.30;;;;;;5013203;28;20038;-82
2022/05/16 10:13:27;;;;;;;13.38;5.13;;;22.00;60.70;;;;;;5001451;28;20520;-84
2022/05/16 10:15:56;;;;;;;12.38;4.30;;;22.30;60.30;;;;;;5014711;28;20033;-82
2022/05/16 10:18:25;;;;;;;17.73;5.15;;;22.60;57.70;;;;;;5025467;28;20171;-81
2022/05/16 10:20:58;;;;;;;13.50;4.35;;;23.10;57.30;;;;;;5011128;28;20057;-83
2022/05/16 10:23:38;;;;;;;14.45;4.07;;;23.40;55.40;;;;;;5013893;28;20097;-81
2022/05/16 10:26:07;;;;;;;11.35;4.20;;;23.00;56.10;;;;;;5011702;28;20084;-82
2022/05/16 10:28:46;;;;;;;12.60;4.40;;;23.00;56.50;;;;;;5010605;28;20041;-82
2022/05/16 10:34:14;;;;;;;13.02;4.43;;;22.60;57.70;;;;;;4999995;28;20513;-83
2022/05/16 10:36:42;;;;;;;9.65;3.25;;;23.00;56.60;;;;;;5010170;28;20050;-83
2022/05/16 10:39:16;;;;;;;12.43;3.70;;;23.20;55.90;;;;;;5016765;28;20117;-81
2022/05/16 10:42:06;;;;;;;12.75;3.95;;;23.80;54.00;;;;;;5020262;28;20053;-81
2022/05/16 10:44:46;;;;;;;14.40;4.30;;;24.10;53.30;;;;;;5019814;28;20548;-82
2022/05/16 10:47:28;;;;;;;13.02;4.05;;;24.50;52.20;;;;;;5018699;28;20128;-82
2022/05/16 10:50:00;;;;;;;10.38;3.88;;;24.50;52.30;;;;;;5016337;28;20041;-83
2022/05/16 10:52:32;;;;;;;10.35;3.60;;;23.90;52.70;;;;;;5016964;28;20052;-81
2022/05/16 10:54:58;;;;;;;16.88;4.00;;;23.60;53.30;;;;;;5010826;28;20056;-83
2022/05/16 10:57:45;;;;;;;9.07;3.55;;;23.90;53.50;;;;;;5009342;28;20045;-81
2022/05/16 11:00:15;;;;;;;11.18;3.65;;;24.00;54.00;;;;;;5010849;28;20492;-82
2022/05/16 11:02:47;;;;;;;12.70;3.50;;;23.80;53.60;;;;;;5002110;28;20436;-81
2022/05/16 11:05:15;;;;;;;9.63;3.13;;;24.00;54.10;;;;;;5009743;28;20053;-82
2022/05/16 11:08:09;;;;;;;8.68;3.20;;;23.50;54.80;;;;;;5022823;28;20487;-81
2022/05/16 11:11:03;;;;;;;8.40;3.22;;;23.50;54.30;;;;;;5014871;28;20034;-80
2022/05/16 11:13:35;;;;;;;14.38;3.60;;;23.60;54.30;;;;;;5003495;28;20034;-84
2022/05/16 11:16:22;;;;;;;9.10;3.20;;;23.80;54.00;;;;;;5021534;28;20034;-81
2022/05/16 11:18:57;;;;;;;6.95;2.90;;;23.80;54.20;;;;;;5011936;28;20080;-81
2022/05/16 11:21:44;;;;;;;9.48;2.88;;;23.60;53.90;;;;;;5012617;28;20076;-82
2022/05/16 11:24:21;;;;;;;7.90;2.47;;;23.70;54.80;;;;;;5010851;28;20600;-81
2022/05/16 11:26:55;;;;;;;8.90;2.70;;;23.60;54.20;;;;;;5011490;28;20573;-82
2022/05/16 11:29:46;;;;;;;7.90;2.40;;;23.40;55.50;;;;;;5014853;28;20073;-81
2022/05/16 11:32:44;;;;;;;8.82;2.60;;;23.80;53.70;;;;;;5009484;28;20483;-80
2022/05/16 11:35:17;;;;;;;10.45;2.58;;;23.90;52.80;;;;;;5006359;28;20515;-81
2022/05/16 11:38:06;;;;;;;8.57;2.80;;;23.70;53.60;;;;;;5009952;28;20144;-80
2022/05/16 11:40:46;;;;;;;11.75;2.28;;;23.80;53.10;;;;;;5001726;28;20077;-81
2022/05/16 11:43:28;;;;;;;8.10;2.22;;;24.10;51.80;;;;;;5003511;28;20121;-81
2022/05/16 11:46:14;;;;;;;11.07;2.50;;;24.00;51.90;;;;;;5010409;28;20030;-81
2022/05/16 11:49:04;;;;;;;12.43;2.60;;;23.80;52.40;;;;;;5011302;28;20061;-84
2022/05/16 11:51:49;;;;;;;10.27;2.80;;;23.70;52.40;;;;;;5008119;28;20144;-81
2022/05/16 11:54:19;;;;;;;11.75;3.03;;;23.20;53.50;;;;;;5005572;28;20348;-80
2022/05/16 12:02:41;;;;;;;8.85;2.85;;;23.10;54.40;;;;;;5011398;28;20041;-82
2022/05/16 12:05:13;;;;;;;8.07;2.63;;;23.40;53.20;;;;;;5013217;28;20381;-84
2022/05/16 12:07:44;;;;;;;11.27;2.45;;;23.10;53.70;;;;;;5004238;28;20045;-81
2022/05/16 12:10:10;;;;;;;8.82;2.53;;;23.30;53.70;;;;;;5001144;28;20367;-82
2022/05/16 12:12:47;;;;;;;7.32;2.50;;;23.30;53.40;;;;;;5015326;28;20049;-81
2022/05/16 12:15:16;;;;;;;9.68;2.67;;;23.60;52.90;;;;;;5006098;28;20057;-83
2022/05/16 12:18:28;;;;;;;11.23;2.83;;;23.60;52.50;;;;;;5024817;28;20481;-81
2022/05/16 12:21:04;;;;;;;11.57;3.13;;;23.50;53.50;;;;;;5009461;28;20093;-82
2022/05/16 12:23:54;;;;;;;13.23;2.60;;;23.20;53.90;;;;;;5017987;28;20055;-83
2022/05/16 12:26:26;;;;;;;16.42;3.38;;;23.00;54.90;;;;;;5008768;28;20034;-83
2022/05/16 12:29:09;;;;;;;11.57;2.55;;;22.90;55.50;;;;;;5015769;28;20251;-84
2022/05/16 12:31:44;;;;;;;11.10;2.63;;;23.30;54.60;;;;;;5011376;28;20261;-83
2022/05/16 12:34:10;;;;;;;7.47;2.50;;;23.50;54.10;;;;;;5012793;28;20233;-81
2022/05/16 12:36:36;;;;;;;9.35;2.67;;;23.50;54.60;;;;;;5013508;28;20050;-81
2022/05/16 12:39:15;;;;;;;8.90;2.40;;;23.80;53.40;;;;;;5014191;28;20406;-82
2022/05/16 12:41:51;;;;;;;9.45;2.60;;;23.60;53.80;;;;;;5015128;28;20508;-80
2022/05/16 12:44:23;;;;;;;12.48;2.70;;;24.00;52.90;;;;;;5007607;28;20503;-82
2022/05/16 12:47:26;;;;;;;9.35;2.90;;;23.90;52.10;;;;;;5009762;28;20099;-83
2022/05/16 12:50:13;;;;;;;11.07;2.97;;;23.90;52.60;;;;;;5008618;28;20508;-80
2022/05/16 12:52:47;;;;;;;7.97;2.50;;;23.70;53.00;;;;;;5005709;28;20227;-81
2022/05/16 12:55:53;;;;;;;9.38;2.78;;;23.80;53.40;;;;;;5019462;28;20490;-82
2022/05/16 12:58:26;;;;;;;10.45;3.00;;;23.60;53.70;;;;;;4998873;28;20045;-81
2022/05/16 13:00:58;;;;;;;12.93;2.60;;;23.60;54.50;;;;;;5014215;28;20049;-81
2022/05/16 13:03:38;;;;;;;12.07;2.88;;;23.80;53.80;;;;;;5020499;28;20061;-81
2022/05/16 13:06:27;;;;;;;15.90;2.70;;;23.90;53.40;;;;;;5011902;28;20033;-81
2022/05/16 13:09:03;;;;;;;9.93;2.78;;;24.00;52.90;;;;;;4997985;28;20102;-84
2022/05/16 13:11:41;;;;;;;11.07;2.72;;;24.10;52.10;;;;;;5011325;28;20091;-83
2022/05/16 13:14:33;;;;;;;11.90;2.40;;;24.60;51.80;;;;;;5017666;28;20434;-81
2022/05/16 13:17:08;;;;;;;9.60;2.30;;;25.10;48.50;;;;;;5023097;28;20120;-82
2022/05/16 13:19:41;;;;;;;11.35;2.85;;;24.80;48.90;;;;;;5007387;28;20044;-83
2022/05/16 13:22:17;;;;;;;11.70;2.22;;;24.80;49.50;;;;;;5009061;28;20049;-81
2022/05/16 13:24:45;;;;;;;15.20;2.78;;;24.90;49.40;;;;;;5006744;28;20038;-83
2022/05/16 13:30:05;;;;;;;8.82;2.50;;;25.70;48.30;;;;;;5017599;28;20064;-83
2022/05/16 13:32:31;;;;;;;9.45;2.30;;;25.90;46.00;;;;;;5019862;28;20538;-81
2022/05/16 13:35:02;;;;;;;8.68;2.58;;;25.80;46.40;;;;;;5004965;28;20042;-83
2022/05/16 13:37:40;;;;;;;9.27;2.28;;;25.30;47.10;;;;;;5010544;28;20871;-83